Airfield :
LOGIN :

Register | Disclaimer

   EN    FR    IT 

 










Legend :    VFR   Marginal VFR   IFR   Intensive IFR   Very Intensive IFR
Visi :
Ceiling :
>= 8 km
>= 3000ft
5 to 8 km
1000 to 3000 ft
1500m to 5 km
500 to 1000 ft
800 to 1500m
200 to 500 ft
< 800m
< 200 ft
Symbols :   Thunderstorms  Fog  Heavy snow  Heavy precipitations  Wind > 20 kt
SIGMETs :     Misc.  Thunderstorms  Icing  Turbulence  Mountain Waves  Volcanic Ashes






- Airport Elevation : 20 ft


EBFN - Koksijde

CURRENT METAR :
  • 050725Z 05014KT 9999 FEW026 04/M02 Q1028 BLU BLU

EXPIRED METARs :
  • 050655Z 04013KT 9999 FEW024 04/M01 Q1028 BLU BLU TEMPO WHT
  • 050543Z 05011KT 9999 FEW022 03/M01 Q1027 BLU BLU
  • 050525Z AUTO 05014KT 9999 FEW023/// 03/M01 Q1027 BLU
  • 050455Z AUTO 05011KT 9999 FEW024/// 02/M01 Q1027 BLU

TAF TAF EBFN
Valid from the 05 at 07:00 until the 05 at 16:00 UTC


050541Z 0507/0516 05010KT 9999 FEW025
TEMPO 0507/0511 SCT020
BECMG 0511/0513 SCT030 BY EBWM



MET'MAP, your aeronautical weather chart ! - Copyright ORBIFLY December 2007 - Disclaimer

ORBIFLY MET'MAP TEAM :

Programming & Development : Alexandra Zaïnal
Concept & original design : Baudouin d'Aumeries
Assistance for programming : Marc-Olivier Méhu
Technical & hardware support : Manuel Goepfert

Contact : metmap@orbifly.com




SOURCES & CREDITS :

   NOAA